Time;durP1;ratioP1;P1;durP2;ratioP2;P2;SDS_P1;SDS_P2;PMS_P1;PMS_P2;Temp;Humidity;BMP_temperature;BMP_pressure;BME280_temperature;BME280_humidity;BME280_pressure;Samples;Min_cycle;Max_cycle;Signal;HPM_P1;HPM_P2
2023/04/16 00:02:17;;;;;;;17.17;11.07;;;10.80;99.90;;;;;;4917281;29;20245;-91
2023/04/16 00:04:44;;;;;;;14.97;11.23;;;10.80;99.90;;;;;;4917912;29;20207;-93
2023/04/16 00:07:12;;;;;;;14.40;10.83;;;10.80;99.90;;;;;;4918006;29;20670;-91
2023/04/16 00:09:39;;;;;;;14.93;10.43;;;10.90;99.90;;;;;;4916078;29;20277;-92
2023/04/16 00:12:07;;;;;;;13.73;10.13;;;10.80;99.90;;;;;;4918268;29;20206;-93
2023/04/16 00:14:34;;;;;;;14.67;10.70;;;10.80;99.90;;;;;;4917855;29;20669;-91
2023/04/16 00:17:01;;;;;;;15.13;10.30;;;10.80;99.90;;;;;;4898785;29;20275;-92
2023/04/16 00:19:28;;;;;;;13.67;10.00;;;10.80;99.90;;;;;;4899202;29;20718;-93
2023/04/16 00:21:55;;;;;;;13.87;9.80;;;10.70;99.90;;;;;;4915494;29;20338;-91
2023/04/16 00:24:23;;;;;;;12.47;9.17;;;10.70;99.90;;;;;;4918338;29;20204;-93
2023/04/16 00:26:50;;;;;;;14.80;9.83;;;10.80;99.90;;;;;;4918124;29;20263;-91
2023/04/16 00:29:17;;;;;;;12.17;8.87;;;10.80;99.90;;;;;;4917638;29;20225;-92
2023/04/16 00:31:44;;;;;;;13.50;9.80;;;10.80;99.90;;;;;;4917878;29;20266;-92
2023/04/16 00:34:11;;;;;;;13.33;9.13;;;10.80;99.90;;;;;;4899226;29;20199;-92
2023/04/16 00:36:38;;;;;;;13.07;9.80;;;10.80;99.90;;;;;;4911625;29;20254;-91
2023/04/16 00:39:05;;;;;;;13.43;8.93;;;10.80;99.90;;;;;;4917954;29;20234;-91
2023/04/16 00:41:34;;;;;;;12.57;8.30;;;10.80;99.90;;;;;;4918131;29;20614;-91
2023/04/16 00:44:00;;;;;;;13.07;9.03;;;10.70;99.90;;;;;;4918059;29;20626;-91
2023/04/16 00:46:28;;;;;;;14.03;8.57;;;10.80;99.90;;;;;;4917612;29;20548;-92
2023/04/16 00:48:55;;;;;;;13.43;9.00;;;10.80;99.90;;;;;;4917933;29;20203;-92
2023/04/16 00:51:22;;;;;;;11.67;8.80;;;10.70;99.90;;;;;;4917591;29;20658;-91
2023/04/16 00:53:50;;;;;;;11.00;8.23;;;10.70;99.90;;;;;;4911480;29;20196;-94
2023/04/16 00:56:17;;;;;;;11.50;8.90;;;10.70;99.90;;;;;;4898803;29;20205;-93
2023/04/16 00:58:46;;;;;;;12.10;8.50;;;10.70;99.90;;;;;;4899897;29;20724;-93
2023/04/16 01:01:13;;;;;;;12.27;8.23;;;10.70;99.90;;;;;;4917448;29;20200;-91
2023/04/16 01:03:45;;;;;;;10.67;7.63;;;10.70;99.90;;;;;;4917725;29;20219;-91
2023/04/16 01:06:13;;;;;;;10.83;7.93;;;10.70;99.90;;;;;;4917411;29;20195;-92
2023/04/16 01:08:40;;;;;;;11.57;8.17;;;10.70;99.90;;;;;;4916850;29;20725;-92
2023/04/16 01:11:07;;;;;;;11.97;7.83;;;10.70;99.90;;;;;;4917375;29;20220;-93
2023/04/16 01:13:37;;;;;;;12.83;8.60;;;10.60;99.90;;;;;;4920632;29;20268;-92
2023/04/16 01:16:07;;;;;;;11.67;8.17;;;10.60;99.90;;;;;;4920644;29;20243;-93
2023/04/16 01:18:34;;;;;;;14.93;9.23;;;10.60;99.90;;;;;;4920969;29;20216;-93
2023/04/16 01:21:03;;;;;;;10.73;8.10;;;10.60;99.90;;;;;;4911315;29;20257;-92
2023/04/16 01:23:30;;;;;;;11.70;8.23;;;10.50;99.90;;;;;;4907192;29;20675;-91
2023/04/16 01:25:57;;;;;;;13.10;8.40;;;10.50;99.90;;;;;;4919611;29;20236;-93
2023/04/16 01:28:24;;;;;;;14.53;8.73;;;10.50;99.90;;;;;;4918648;29;20192;-91
2023/04/16 01:30:51;;;;;;;13.23;8.70;;;10.50;99.90;;;;;;4920641;29;20219;-93
2023/04/16 01:33:19;;;;;;;13.33;8.90;;;10.50;99.90;;;;;;4920834;29;20211;-92
2023/04/16 01:35:46;;;;;;;13.80;8.40;;;10.40;99.90;;;;;;4920625;29;20645;-93
2023/04/16 01:38:14;;;;;;;12.67;8.77;;;10.40;99.90;;;;;;4920686;29;20194;-92
2023/04/16 01:40:41;;;;;;;12.03;8.20;;;10.40;99.90;;;;;;4920602;29;20668;-94
2023/04/16 01:43:08;;;;;;;12.40;8.53;;;10.40;99.90;;;;;;4916364;29;20257;-92
2023/04/16 01:45:35;;;;;;;12.27;8.27;;;10.40;99.90;;;;;;4920691;29;20252;-92
2023/04/16 01:48:03;;;;;;;13.63;8.97;;;10.40;1.00;;;;;;4920463;29;20254;-93
2023/04/16 01:50:30;;;;;;;13.23;8.80;;;10.40;1.00;;;;;;4920770;29;20282;-93
2023/04/16 01:52:58;;;;;;;11.97;8.90;;;10.40;1.00;;;;;;4920828;29;20208;-91
2023/04/16 01:55:26;;;;;;;13.17;8.60;;;10.40;1.00;;;;;;4920375;29;20663;-93
2023/04/16 01:57:53;;;;;;;15.47;8.97;;;10.30;1.00;;;;;;4904002;29;20234;-94
2023/04/16 02:00:20;;;;;;;15.73;9.53;;;10.30;1.00;;;;;;4911066;29;20206;-92
2023/04/16 02:02:49;;;;;;;13.37;9.23;;;10.30;1.00;;;;;;4920298;29;20198;-92
2023/04/16 02:05:16;;;;;;;14.93;9.70;;;10.30;1.00;;;;;;4901337;29;20551;-93
2023/04/16 02:07:43;;;;;;;13.57;9.13;;;10.30;1.00;;;;;;4919895;29;20555;-92
2023/04/16 02:10:10;;;;;;;14.37;9.53;;;10.30;1.00;;;;;;4901562;29;20228;-92
2023/04/16 02:12:38;;;;;;;15.53;9.27;;;10.20;1.00;;;;;;4906634;29;20273;-93
2023/04/16 02:15:06;;;;;;;18.20;10.20;;;10.30;1.00;;;;;;4901181;29;20268;-93
2023/04/16 02:17:33;;;;;;;15.63;9.83;;;10.20;1.00;;;;;;4902966;29;20276;-92
2023/04/16 02:20:02;;;;;;;19.50;9.87;;;10.20;1.00;;;;;;4919823;29;20254;-92
2023/04/16 02:22:29;;;;;;;16.70;9.93;;;10.30;1.00;;;;;;4919661;29;20205;-93
2023/04/16 02:24:56;;;;;;;16.13;9.73;;;10.20;1.00;;;;;;4916149;29;20207;-92
2023/04/16 02:27:23;;;;;;;16.10;10.17;;;10.30;1.00;;;;;;4920215;29;20213;-92
2023/04/16 02:29:51;;;;;;;15.17;9.10;;;10.20;1.00;;;;;;4919779;29;20223;-92
2023/04/16 02:32:18;;;;;;;15.67;9.40;;;10.30;1.00;;;;;;4901106;29;20215;-91
2023/04/16 02:34:45;;;;;;;15.73;9.67;;;10.20;1.00;;;;;;4900665;29;20210;-92
2023/04/16 02:37:14;;;;;;;15.77;9.30;;;10.20;1.00;;;;;;4936745;29;20209;-93
2023/04/16 02:39:41;;;;;;;14.80;9.60;;;10.20;1.00;;;;;;4938910;29;20549;-91
2023/04/16 02:42:08;;;;;;;18.40;10.40;;;10.20;1.00;;;;;;4938533;29;20693;-93
2023/04/16 02:44:35;;;;;;;15.20;10.17;;;10.20;1.00;;;;;;4932304;29;20734;-92
2023/04/16 02:47:04;;;;;;;15.37;10.00;;;10.20;1.00;;;;;;4919403;29;20613;-92
2023/04/16 02:49:31;;;;;;;15.77;9.77;;;10.20;1.00;;;;;;4900797;29;20260;-92
2023/04/16 02:51:57;;;;;;;17.83;10.67;;;10.20;1.00;;;;;;4916176;29;20224;-92
2023/04/16 02:54:24;;;;;;;16.33;10.73;;;10.10;1.00;;;;;;4919230;29;20210;-91
2023/04/16 02:56:51;;;;;;;15.83;9.30;;;10.20;1.00;;;;;;4911915;29;20207;-93
2023/04/16 02:59:18;;;;;;;18.90;10.73;;;10.10;1.00;;;;;;4900511;29;20394;-93
2023/04/16 03:01:45;;;;;;;14.70;9.83;;;10.20;1.00;;;;;;4900191;29;20197;-93
2023/04/16 03:04:14;;;;;;;13.10;8.40;;;10.10;1.00;;;;;;4900196;29;20207;-93
2023/04/16 03:06:41;;;;;;;15.70;9.77;;;10.10;1.00;;;;;;4913988;29;20203;-93
2023/04/16 03:09:08;;;;;;;13.77;9.03;;;10.10;1.00;;;;;;4909092;29;20612;-93
2023/04/16 03:11:35;;;;;;;12.00;8.13;;;10.10;1.00;;;;;;4900119;29;20293;-92
2023/04/16 03:14:02;;;;;;;12.23;8.43;;;10.10;1.00;;;;;;4902556;29;20205;-93
2023/04/16 03:16:29;;;;;;;13.97;9.30;;;10.10;1.00;;;;;;4918734;29;20241;-94
2023/04/16 03:18:56;;;;;;;14.23;8.47;;;10.10;1.00;;;;;;4934820;29;20212;-91
2023/04/16 03:21:24;;;;;;;12.73;8.03;;;10.10;1.00;;;;;;4921260;29;20194;-92
2023/04/16 03:23:52;;;;;;;14.53;8.97;;;10.10;1.00;;;;;;4919143;29;20236;-92
2023/04/16 03:26:19;;;;;;;12.70;8.33;;;10.10;1.00;;;;;;4918549;29;20264;-93
2023/04/16 03:28:46;;;;;;;12.63;9.03;;;10.10;1.00;;;;;;4919159;29;20204;-93
2023/04/16 03:31:13;;;;;;;13.50;9.33;;;10.00;1.00;;;;;;4917610;29;20698;-92
2023/04/16 03:33:41;;;;;;;14.97;9.40;;;10.00;1.00;;;;;;4907358;29;20218;-92
2023/04/16 03:36:09;;;;;;;13.47;8.70;;;10.00;1.00;;;;;;4918577;29;20205;-91
2023/04/16 03:38:37;;;;;;;15.67;9.20;;;10.00;1.00;;;;;;4918644;29;20194;-91
2023/04/16 03:41:04;;;;;;;15.57;9.30;;;10.00;1.00;;;;;;4918443;29;20737;-92
2023/04/16 03:43:31;;;;;;;15.37;9.30;;;10.00;1.00;;;;;;4918311;29;20202;-93
2023/04/16 03:45:58;;;;;;;15.07;9.33;;;10.00;1.00;;;;;;4918509;29;20206;-93
2023/04/16 03:48:25;;;;;;;13.80;9.03;;;10.00;1.00;;;;;;4916093;29;20209;-94
2023/04/16 03:50:52;;;;;;;14.93;9.40;;;10.00;1.00;;;;;;4918780;29;20700;-93
2023/04/16 03:53:19;;;;;;;13.27;8.60;;;10.00;1.00;;;;;;4900058;29;20206;-92
2023/04/16 03:55:50;;;;;;;12.17;8.47;;;10.00;1.00;;;;;;4918574;29;20265;-92
2023/04/16 03:58:17;;;;;;;16.23;9.10;;;10.00;1.00;;;;;;4916586;29;20221;-92
2023/04/16 04:00:44;;;;;;;13.90;8.90;;;10.00;1.00;;;;;;4918186;29;20268;-91
2023/04/16 04:03:12;;;;;;;16.23;9.23;;;9.90;1.00;;;;;;4908718;29;20247;-91
2023/04/16 04:05:40;;;;;;;15.63;9.23;;;9.90;1.00;;;;;;4904762;29;20193;-92
2023/04/16 04:08:07;;;;;;;15.63;9.00;;;9.90;2.20;;;;;;4915720;29;20730;-94
2023/04/16 04:10:35;;;;;;;16.77;9.67;;;9.90;5.00;;;;;;4899485;29;20223;-92
2023/04/16 04:13:05;;;;;;;13.27;8.30;;;9.90;11.50;;;;;;4916708;29;20208;-93
2023/04/16 04:15:32;;;;;;;14.63;9.50;;;9.90;28.30;;;;;;4918174;29;20241;-92
2023/04/16 04:17:59;;;;;;;14.47;8.77;;;9.90;33.50;;;;;;4917824;29;20715;-93
2023/04/16 04:20:26;;;;;;;14.07;8.80;;;9.90;54.60;;;;;;4918195;29;20197;-91
2023/04/16 04:22:53;;;;;;;13.73;8.40;;;10.00;49.50;;;;;;4917878;29;20205;-93
2023/04/16 04:25:20;;;;;;;12.17;7.97;;;9.90;34.50;;;;;;4899318;29;20261;-91
2023/04/16 04:27:48;;;;;;;12.33;7.40;;;9.90;37.30;;;;;;4899365;29;20209;-92
2023/04/16 04:30:16;;;;;;;9.43;5.90;;;10.00;34.70;;;;;;4898940;29;20295;-93
2023/04/16 04:32:43;;;;;;;12.70;7.60;;;10.00;46.90;;;;;;4899508;29;20206;-92
2023/04/16 04:35:10;;;;;;;13.10;7.40;;;10.00;16.90;;;;;;4899749;29;20205;-92
2023/04/16 04:37:37;;;;;;;11.50;6.87;;;10.00;20.20;;;;;;4918146;29;20196;-93
2023/04/16 04:40:04;;;;;;;12.50;7.30;;;10.00;14.90;;;;;;4918156;29;20673;-93
2023/04/16 04:42:31;;;;;;;10.27;6.93;;;10.00;4.50;;;;;;4918591;29;20209;-93
2023/04/16 04:44:58;;;;;;;10.37;6.80;;;10.00;20.00;;;;;;4918210;29;20198;-93
2023/04/16 04:47:27;;;;;;;10.70;7.60;;;9.90;6.40;;;;;;4905063;29;20205;-93
2023/04/16 04:49:54;;;;;;;13.70;7.67;;;9.90;7.50;;;;;;4903571;29;20262;-93
2023/04/16 04:52:20;;;;;;;13.60;8.50;;;9.90;13.20;;;;;;4921625;29;20290;-92
2023/04/16 04:54:47;;;;;;;13.83;8.67;;;9.90;27.60;;;;;;4915908;29;20196;-92
2023/04/16 04:57:14;;;;;;;11.43;7.80;;;9.90;56.60;;;;;;4912699;29;20233;-93
2023/04/16 04:59:41;;;;;;;13.37;8.63;;;9.90;47.80;;;;;;4906814;29;20727;-93
2023/04/16 05:02:08;;;;;;;12.17;8.27;;;10.00;19.30;;;;;;4904356;29;20577;-92
2023/04/16 05:04:37;;;;;;;13.13;8.67;;;10.00;27.40;;;;;;4902557;29;20201;-92
2023/04/16 05:07:03;;;;;;;13.53;9.10;;;10.00;19.70;;;;;;4919786;29;20200;-91
2023/04/16 05:09:30;;;;;;;13.17;8.90;;;9.90;7.70;;;;;;4921838;29;20245;-93
2023/04/16 05:11:58;;;;;;;9.87;6.47;;;9.90;7.70;;;;;;4921627;29;20218;-93
2023/04/16 05:14:25;;;;;;;13.87;7.80;;;10.00;9.30;;;;;;4921323;29;20213;-92
2023/04/16 05:16:52;;;;;;;14.00;8.87;;;10.00;9.40;;;;;;4922253;29;20260;-94
2023/04/16 05:19:20;;;;;;;12.73;8.00;;;10.00;1.00;;;;;;4910551;29;20229;-93
2023/04/16 05:21:48;;;;;;;12.53;7.40;;;9.90;1.00;;;;;;4923381;29;20286;-92
2023/04/16 05:24:15;;;;;;;13.40;8.80;;;10.00;1.00;;;;;;4915165;29;20197;-93
2023/04/16 05:26:42;;;;;;;12.77;8.73;;;10.00;1.00;;;;;;4913373;29;20201;-93
2023/04/16 05:29:09;;;;;;;16.63;9.07;;;10.00;1.00;;;;;;4920671;29;20193;-93
2023/04/16 05:31:36;;;;;;;12.27;8.37;;;10.00;1.00;;;;;;4920887;29;20320;-94
2023/04/16 05:34:03;;;;;;;16.00;9.70;;;10.10;1.00;;;;;;4907747;29;20198;-94
2023/04/16 05:36:30;;;;;;;13.60;9.43;;;10.00;1.00;;;;;;4918256;29;20198;-93
2023/04/16 05:38:59;;;;;;;15.77;10.17;;;10.10;1.00;;;;;;4922355;29;20201;-93
2023/04/16 05:41:25;;;;;;;14.23;9.07;;;10.10;1.00;;;;;;4919555;29;20213;-93
2023/04/16 05:43:52;;;;;;;15.17;9.77;;;10.10;1.00;;;;;;4902439;29;20207;-91
2023/04/16 05:46:20;;;;;;;15.13;9.00;;;10.10;1.00;;;;;;4925524;29;20204;-94
2023/04/16 05:48:47;;;;;;;13.57;8.50;;;10.20;1.00;;;;;;4932970;29;20273;-94
2023/04/16 05:51:14;;;;;;;12.33;8.67;;;10.20;1.00;;;;;;4917620;29;20236;-94
2023/04/16 05:53:41;;;;;;;14.17;7.97;;;10.30;1.00;;;;;;4931806;29;20242;-94
2023/04/16 05:56:10;;;;;;;13.23;8.30;;;10.30;1.00;;;;;;4930321;29;20202;-93
2023/04/16 05:58:37;;;;;;;12.67;8.23;;;10.30;1.00;;;;;;4911408;29;20219;-94
2023/04/16 06:01:04;;;;;;;11.37;8.00;;;10.30;1.00;;;;;;4927987;29;20202;-94
2023/04/16 06:03:31;;;;;;;14.10;8.40;;;10.40;1.00;;;;;;4930155;29;20198;-93
2023/04/16 06:05:58;;;;;;;13.37;8.10;;;10.40;1.00;;;;;;4911479;29;20195;-92
2023/04/16 06:08:25;;;;;;;9.20;6.77;;;10.40;1.00;;;;;;4910058;29;20199;-94
2023/04/16 06:10:53;;;;;;;12.27;8.43;;;10.50;1.00;;;;;;4903129;29;20236;-94
2023/04/16 06:13:21;;;;;;;9.53;5.97;;;10.50;1.00;;;;;;4909567;29;20203;-93
2023/04/16 06:15:48;;;;;;;10.10;6.57;;;10.50;1.00;;;;;;4924591;29;20196;-94
2023/04/16 06:18:16;;;;;;;9.90;6.13;;;10.40;1.00;;;;;;4924779;29;20205;-94
2023/04/16 06:20:43;;;;;;;10.73;6.10;;;10.40;1.00;;;;;;4925432;29;20281;-95
2023/04/16 06:23:10;;;;;;;10.77;6.80;;;10.40;1.00;;;;;;4920658;29;20232;-94
2023/04/16 06:25:37;;;;;;;9.67;5.80;;;10.50;1.00;;;;;;4930178;29;20202;-94
2023/04/16 06:28:04;;;;;;;7.03;5.33;;;10.50;1.00;;;;;;4928330;29;20206;-95
2023/04/16 06:30:33;;;;;;;7.57;4.83;;;10.50;1.00;;;;;;4920058;29;20239;-95
2023/04/16 06:33:00;;;;;;;8.10;5.50;;;10.50;1.00;;;;;;4914013;29;20261;-94
2023/04/16 06:35:27;;;;;;;8.73;5.67;;;10.50;1.00;;;;;;4914904;29;20613;-95
2023/04/16 06:37:54;;;;;;;8.33;5.60;;;10.50;1.00;;;;;;4929502;29;20237;-94
2023/04/16 06:40:21;;;;;;;7.70;5.33;;;10.60;1.00;;;;;;4919384;29;20216;-95
2023/04/16 06:42:48;;;;;;;10.00;6.40;;;10.70;1.00;;;;;;4930979;29;20195;-94
2023/04/16 06:45:16;;;;;;;9.67;6.00;;;10.70;1.00;;;;;;4928394;29;20214;-93
2023/04/16 06:47:45;;;;;;;9.60;6.27;;;10.80;1.00;;;;;;4935731;29;20667;-93
2023/04/16 06:50:12;;;;;;;9.80;5.93;;;10.90;1.00;;;;;;4927115;29;20213;-92
2023/04/16 06:52:39;;;;;;;6.53;5.00;;;10.90;1.00;;;;;;4910254;29;20231;-92
2023/04/16 06:55:09;;;;;;;7.93;5.03;;;10.90;1.00;;;;;;4924633;29;20222;-93
2023/04/16 06:57:36;;;;;;;9.97;5.33;;;11.00;99.90;;;;;;4929152;29;20752;-93
2023/04/16 07:00:06;;;;;;;7.17;5.10;;;11.00;99.90;;;;;;4929850;29;20201;-93
2023/04/16 07:02:33;;;;;;;6.67;5.10;;;11.00;99.90;;;;;;4928297;29;20187;-95
2023/04/16 07:05:01;;;;;;;9.17;5.40;;;11.10;99.90;;;;;;4922721;29;20257;-95
2023/04/16 07:07:28;;;;;;;6.63;5.03;;;11.10;99.90;;;;;;4929419;29;20210;-94
2023/04/16 07:09:56;;;;;;;6.40;4.57;;;11.10;99.90;;;;;;4928126;29;20201;-95
2023/04/16 07:12:23;;;;;;;7.00;5.20;;;11.10;99.90;;;;;;4923189;29;20220;-94
2023/04/16 07:14:50;;;;;;;7.33;5.50;;;11.10;99.90;;;;;;4923433;29;20203;-95
2023/04/16 07:17:17;;;;;;;7.17;5.20;;;11.00;99.90;;;;;;4928097;29;20242;-96
2023/04/16 07:19:44;;;;;;;5.93;4.27;;;10.90;99.90;;;;;;4927953;29;20200;-95
2023/04/16 07:22:13;;;;;;;7.43;4.60;;;10.90;99.90;;;;;;4922599;29;20195;-94
2023/04/16 07:24:40;;;;;;;5.27;3.90;;;10.90;99.90;;;;;;4923918;29;20204;-94
2023/04/16 07:27:07;;;;;;;5.13;3.77;;;11.00;99.90;;;;;;4919713;29;20204;-95
2023/04/16 07:29:34;;;;;;;4.23;3.50;;;11.10;99.90;;;;;;4932391;29;20200;-94
2023/04/16 07:32:01;;;;;;;4.83;3.60;;;11.10;99.90;;;;;;4932800;29;20219;-94
2023/04/16 07:34:28;;;;;;;5.70;3.77;;;11.20;99.90;;;;;;4920142;29;20614;-95
2023/04/16 07:36:55;;;;;;;5.47;3.40;;;11.40;99.90;;;;;;4922700;29;20203;-94
2023/04/16 07:39:24;;;;;;;4.40;3.77;;;11.60;99.90;;;;;;4921445;29;20211;-94
2023/04/16 07:41:51;;;;;;;5.00;4.03;;;11.70;1.00;;;;;;4926211;29;20208;-94
2023/04/16 07:44:21;;;;;;;6.00;4.20;;;11.80;1.00;;;;;;4923566;29;20296;-93
2023/04/16 07:46:48;;;;;;;4.50;3.80;;;11.90;1.00;;;;;;4926168;29;20199;-95
2023/04/16 07:49:15;;;;;;;5.83;4.10;;;12.00;1.00;;;;;;4926442;29;20200;-94
2023/04/16 07:51:43;;;;;;;5.97;3.53;;;12.10;1.00;;;;;;4924365;29;20262;-94
2023/04/16 07:54:10;;;;;;;4.47;3.70;;;12.50;1.00;;;;;;4929874;29;20202;-93
2023/04/16 07:56:38;;;;;;;4.17;3.43;;;12.70;1.00;;;;;;4904064;29;20204;-93
2023/04/16 07:59:06;;;;;;;4.90;3.27;;;12.90;1.00;;;;;;4915409;29;20249;-93
2023/04/16 08:01:33;;;;;;;3.77;3.00;;;13.00;99.90;;;;;;4923815;29;20210;-92
2023/04/16 08:04:00;;;;;;;4.57;2.93;;;13.00;99.90;;;;;;4912185;29;20210;-92
2023/04/16 08:06:27;;;;;;;4.00;3.07;;;13.10;99.90;;;;;;4917925;29;20209;-95
2023/04/16 08:08:54;;;;;;;3.77;2.67;;;13.00;70.50;;;;;;4923413;29;20700;-94
2023/04/16 08:11:21;;;;;;;3.70;2.63;;;12.90;75.00;;;;;;4921504;29;20636;-92
2023/04/16 08:13:50;;;;;;;3.23;2.83;;;12.80;61.70;;;;;;4926914;29;20203;-92
2023/04/16 08:16:17;;;;;;;2.90;2.57;;;13.00;99.90;;;;;;4922988;29;20235;-93
2023/04/16 08:18:44;;;;;;;3.03;2.57;;;13.00;70.60;;;;;;4911127;29;20223;-92
2023/04/16 08:21:11;;;;;;;2.70;2.50;;;13.00;59.60;;;;;;4920807;29;20207;-94
2023/04/16 08:23:38;;;;;;;2.97;2.27;;;13.10;5.80;;;;;;4920622;29;20247;-93
2023/04/16 08:26:05;;;;;;;2.90;2.30;;;13.00;1.00;;;;;;4919679;29;20200;-94
2023/04/16 08:28:32;;;;;;;2.80;2.50;;;13.00;1.00;;;;;;4916245;29;20256;-91
2023/04/16 08:31:01;;;;;;;2.73;2.53;;;13.00;1.00;;;;;;4918156;29;20269;-92
2023/04/16 08:33:28;;;;;;;2.37;2.17;;;12.90;1.00;;;;;;4918061;29;20225;-91
2023/04/16 08:35:55;;;;;;;2.50;2.23;;;12.80;1.00;;;;;;4906848;29;20749;-90
2023/04/16 08:38:22;;;;;;;2.63;2.27;;;12.80;1.00;;;;;;4917643;29;20268;-92
2023/04/16 08:40:49;;;;;;;2.30;2.10;;;12.80;1.00;;;;;;4917504;29;20200;-91
2023/04/16 08:43:17;;;;;;;2.30;2.10;;;12.80;1.00;;;;;;4915114;29;20200;-92
2023/04/16 08:45:47;;;;;;;2.50;2.00;;;12.80;1.00;;;;;;4902888;29;20671;-92
2023/04/16 08:48:15;;;;;;;2.60;2.00;;;12.90;1.00;;;;;;4900758;29;20196;-91
2023/04/16 08:50:44;;;;;;;2.20;2.00;;;12.80;1.00;;;;;;4917683;29;20255;-91
2023/04/16 08:53:15;;;;;;;3.13;1.77;;;12.80;1.00;;;;;;4911756;29;20275;-91
2023/04/16 08:55:48;;;;;;;2.00;1.70;;;12.70;1.00;;;;;;4909872;29;20199;-93
2023/04/16 08:58:19;;;;;;;2.33;1.90;;;12.60;1.00;;;;;;4930884;29;20659;-91
2023/04/16 09:00:47;;;;;;;2.23;1.70;;;12.50;1.00;;;;;;4918038;29;20213;-92
2023/04/16 09:03:20;;;;;;;2.27;1.90;;;12.50;1.00;;;;;;4912726;29;20240;-92
2023/04/16 09:05:47;;;;;;;1.60;1.50;;;12.50;1.00;;;;;;4912987;29;20191;-94
2023/04/16 09:08:14;;;;;;;1.97;1.77;;;12.50;1.00;;;;;;4917641;29;20195;-94
2023/04/16 09:10:46;;;;;;;2.93;1.70;;;12.60;1.00;;;;;;4918846;29;20200;-91
2023/04/16 09:13:15;;;;;;;1.77;1.67;;;12.70;1.00;;;;;;4927122;29;20242;-90
2023/04/16 09:15:44;;;;;;;1.70;1.60;;;12.80;1.00;;;;;;4921258;29;20236;-92
2023/04/16 09:18:11;;;;;;;2.07;1.87;;;12.80;1.00;;;;;;4917050;29;20268;-91
2023/04/16 09:20:39;;;;;;;3.23;1.60;;;12.90;1.00;;;;;;4901363;29;20231;-92
2023/04/16 09:23:06;;;;;;;1.90;1.60;;;13.00;1.00;;;;;;4910753;29;20682;-91
2023/04/16 09:25:35;;;;;;;1.63;1.50;;;13.00;1.00;;;;;;4916578;29;20199;-92
2023/04/16 09:28:02;;;;;;;7.20;1.90;;;13.00;1.00;;;;;;4915898;29;20259;-91
2023/04/16 09:30:29;;;;;;;2.73;1.60;;;13.00;1.00;;;;;;4916462;29;20211;-90
2023/04/16 09:33:15;;;;;;;3.30;2.37;;;13.00;1.00;;;;;;4900834;29;20220;-90
2023/04/16 09:35:47;;;;;;;3.20;1.73;;;12.90;1.00;;;;;;4901396;29;20298;-91
2023/04/16 09:38:15;;;;;;;2.00;1.80;;;13.10;1.00;;;;;;4902115;29;20635;-91
2023/04/16 09:40:42;;;;;;;2.10;1.83;;;13.10;99.90;;;;;;4901791;29;20203;-92
2023/04/16 09:43:13;;;;;;;2.90;1.87;;;13.10;99.90;;;;;;4908228;29;20194;-92
2023/04/16 09:45:49;;;;;;;1.90;1.63;;;13.20;99.90;;;;;;4919149;29;20203;-91
2023/04/16 09:48:27;;;;;;;1.70;1.60;;;13.30;99.90;;;;;;4915889;29;20671;-90
2023/04/16 09:50:56;;;;;;;2.10;1.47;;;13.30;99.90;;;;;;4905444;29;20191;-92
2023/04/16 09:53:26;;;;;;;1.63;1.53;;;13.20;99.90;;;;;;4908979;29;20259;-91
2023/04/16 09:55:56;;;;;;;2.47;2.20;;;13.10;99.90;;;;;;4912202;29;20661;-91
2023/04/16 09:58:23;;;;;;;1.87;1.67;;;13.00;99.90;;;;;;4912101;29;20262;-91
2023/04/16 10:00:56;;;;;;;2.30;2.00;;;13.00;99.90;;;;;;4920097;29;20286;-92
2023/04/16 10:03:30;;;;;;;2.10;1.70;;;13.00;99.90;;;;;;4919254;29;20192;-91
2023/04/16 10:06:00;;;;;;;2.43;1.80;;;12.90;99.90;;;;;;4919994;29;20626;-91
2023/04/16 10:08:28;;;;;;;1.87;1.60;;;12.80;99.90;;;;;;4906261;29;20230;-92
2023/04/16 10:10:56;;;;;;;1.80;1.70;;;12.80;1.00;;;;;;4901122;29;20204;-91
2023/04/16 10:13:26;;;;;;;2.50;1.90;;;12.90;1.00;;;;;;4905456;29;20322;-93
2023/04/16 10:15:56;;;;;;;2.43;2.10;;;12.90;99.90;;;;;;4904352;29;20210;-93
2023/04/16 10:18:23;;;;;;;1.53;1.40;;;12.70;99.90;;;;;;4917516;29;20619;-93
2023/04/16 10:20:51;;;;;;;2.67;2.00;;;12.60;99.90;;;;;;4914780;29;20202;-93
2023/04/16 10:23:20;;;;;;;3.03;1.70;;;12.40;99.90;;;;;;4915058;29;20230;-91
2023/04/16 10:25:48;;;;;;;1.83;1.73;;;12.30;1.00;;;;;;4911598;29;20225;-93
2023/04/16 10:28:15;;;;;;;1.90;1.70;;;12.20;1.00;;;;;;4901077;29;20203;-92
2023/04/16 10:30:51;;;;;;;1.70;1.60;;;12.20;1.00;;;;;;4900918;29;20215;-93
2023/04/16 10:33:22;;;;;;;2.00;1.80;;;12.10;1.00;;;;;;4901449;29;20214;-93
2023/04/16 10:35:50;;;;;;;2.77;2.00;;;12.10;1.00;;;;;;4900984;29;20187;-92
2023/04/16 10:38:25;;;;;;;2.37;2.00;;;12.10;1.00;;;;;;4911124;29;20204;-91
2023/04/16 10:41:00;;;;;;;2.30;2.10;;;12.40;1.00;;;;;;4919027;29;20266;-92
2023/04/16 10:43:28;;;;;;;2.33;1.90;;;12.60;1.00;;;;;;4919942;29;20185;-92
2023/04/16 10:45:55;;;;;;;2.80;2.03;;;12.80;1.00;;;;;;4916258;29;20203;-91
2023/04/16 10:48:24;;;;;;;2.10;1.90;;;12.90;1.00;;;;;;4914207;29;20246;-90
2023/04/16 10:50:56;;;;;;;2.33;2.00;;;13.00;1.00;;;;;;4918821;29;20600;-93
2023/04/16 10:53:26;;;;;;;2.30;1.80;;;13.00;1.00;;;;;;4909704;29;20259;-92
2023/04/16 10:56:14;;;;;;;2.03;1.80;;;13.00;1.00;;;;;;4910473;29;20243;-93
2023/04/16 10:58:41;;;;;;;2.27;2.07;;;13.10;1.00;;;;;;4911383;29;20215;-93
2023/04/16 11:01:13;;;;;;;2.43;1.80;;;13.20;1.00;;;;;;4905442;29;20243;-92
2023/04/16 11:03:47;;;;;;;2.00;1.80;;;13.30;99.90;;;;;;4919392;29;20236;-91
2023/04/16 11:06:16;;;;;;;1.80;1.70;;;13.10;99.90;;;;;;4919228;29;20285;-92
2023/04/16 11:08:46;;;;;;;1.63;1.53;;;13.10;99.90;;;;;;4919558;29;20621;-92
2023/04/16 11:11:13;;;;;;;1.80;1.70;;;13.00;99.90;;;;;;4916248;29;20201;-91
2023/04/16 11:13:43;;;;;;;3.27;1.70;;;13.00;99.90;;;;;;4918704;29;20275;-93
2023/04/16 11:16:11;;;;;;;1.77;1.60;;;12.90;1.00;;;;;;4918223;29;20228;-90
2023/04/16 11:18:40;;;;;;;2.17;1.70;;;12.80;1.00;;;;;;4918269;29;20671;-90
2023/04/16 11:21:09;;;;;;;1.70;1.60;;;12.80;1.00;;;;;;4918403;29;20199;-93
2023/04/16 11:23:53;;;;;;;2.00;1.63;;;12.80;1.00;;;;;;4909298;29;20188;-93
2023/04/16 11:26:22;;;;;;;2.80;1.87;;;12.90;1.00;;;;;;4917054;29;20201;-92
2023/04/16 11:28:49;;;;;;;1.80;1.70;;;13.10;1.00;;;;;;4915343;29;20255;-91
2023/04/16 11:31:16;;;;;;;2.13;1.73;;;13.20;1.00;;;;;;4918818;29;20232;-93
2023/04/16 11:33:43;;;;;;;2.00;1.67;;;13.40;99.90;;;;;;4907858;29;20223;-93
2023/04/16 11:36:10;;;;;;;1.90;1.77;;;13.30;99.90;;;;;;4918538;29;20659;-93
2023/04/16 11:38:39;;;;;;;1.70;1.60;;;13.30;99.90;;;;;;4905748;29;20554;-93
2023/04/16 11:41:08;;;;;;;2.10;1.90;;;13.20;99.90;;;;;;4936289;29;20200;-93
2023/04/16 11:43:35;;;;;;;2.10;1.90;;;13.20;99.90;;;;;;4932728;29;20202;-93
2023/04/16 11:46:03;;;;;;;2.00;1.80;;;13.20;99.90;;;;;;4918434;29;20268;-92
2023/04/16 11:48:48;;;;;;;2.03;1.83;;;13.30;99.90;;;;;;4899547;29;20557;-93
2023/04/16 11:51:15;;;;;;;2.00;1.80;;;13.40;99.90;;;;;;4899527;29;20182;-92
2023/04/16 11:53:49;;;;;;;2.03;1.70;;;13.50;99.90;;;;;;4907977;29;20221;-92
2023/04/16 11:56:25;;;;;;;3.40;2.10;;;13.60;99.90;;;;;;4912772;29;20251;-92
2023/04/16 11:59:10;;;;;;;2.37;2.17;;;13.60;89.10;;;;;;4918157;29;20188;-91
2023/04/16 12:01:37;;;;;;;1.83;1.73;;;13.60;99.90;;;;;;4918567;29;20209;-92
2023/04/16 12:04:04;;;;;;;2.07;1.83;;;13.80;22.00;;;;;;4918502;29;20264;-92
2023/04/16 12:06:32;;;;;;;2.60;2.10;;;13.70;69.60;;;;;;4918403;29;20195;-92
2023/04/16 12:08:59;;;;;;;1.93;1.73;;;13.80;99.90;;;;;;4918497;29;20237;-93
2023/04/16 12:11:40;;;;;;;1.90;1.80;;;13.80;1.00;;;;;;4918143;29;20681;-92
2023/04/16 12:14:08;;;;;;;2.00;1.80;;;13.70;1.00;;;;;;4917988;29;20232;-92
2023/04/16 12:16:35;;;;;;;2.10;1.90;;;13.40;1.00;;;;;;4908319;29;20237;-92
2023/04/16 12:19:03;;;;;;;2.00;1.80;;;13.30;15.80;;;;;;4910869;29;20607;-92
2023/04/16 12:21:38;;;;;;;2.13;1.93;;;13.20;99.90;;;;;;4916172;29;20647;-92
2023/04/16 12:24:06;;;;;;;1.80;1.70;;;13.10;99.90;;;;;;4901823;29;20261;-92
2023/04/16 12:26:42;;;;;;;2.20;2.00;;;13.20;99.90;;;;;;4899247;29;20244;-91
2023/04/16 12:29:17;;;;;;;2.23;2.00;;;13.20;99.90;;;;;;4905610;29;20205;-92
2023/04/16 12:31:44;;;;;;;2.20;2.00;;;13.20;99.90;;;;;;4899401;29;20225;-93
2023/04/16 12:34:11;;;;;;;1.73;1.63;;;13.30;99.90;;;;;;4904040;29;20693;-92
2023/04/16 12:36:38;;;;;;;2.70;1.70;;;13.30;99.90;;;;;;4918110;29;20542;-92
2023/04/16 12:39:06;;;;;;;3.10;1.70;;;13.30;64.00;;;;;;4917729;29;20204;-93
2023/04/16 12:41:34;;;;;;;2.03;1.83;;;13.30;1.00;;;;;;4917955;29;20211;-94
2023/04/16 12:44:08;;;;;;;2.10;1.60;;;13.20;99.90;;;;;;4906904;29;20246;-93
2023/04/16 12:46:36;;;;;;;2.10;1.90;;;13.10;99.90;;;;;;4905562;29;20262;-90
2023/04/16 12:49:03;;;;;;;1.97;1.73;;;13.00;99.90;;;;;;4915019;29;20215;-90
2023/04/16 12:51:31;;;;;;;2.03;1.83;;;12.90;99.90;;;;;;4900446;29;20200;-90
2023/04/16 12:53:58;;;;;;;2.20;2.00;;;12.80;1.00;;;;;;4917688;29;20219;-91